Flight Track Log - Related Links

Times and Time Zones

All times are in EDT time to prevent confusion due to time zone crossing. See the TMC875 flight status page for this flight to view local times or setup timezone preferences in your user account.

Time Position Orientation Groundspeed Altitude Reporting Facility
EDT Latitude Longitude Course Direction KTS MPH feet Rate Location/Type
Wed 01:35:00 PM 29.5153 -98.4503 90° East 199 229 2,700  Level Houston Center
Wed 01:36:08 PM 29.5153 -98.3683 90° East 279 321 7,300 3,831 Climbing Houston Center
Wed 01:37:10 PM 29.6075 -98.3481 11° North 316 364 11,000 1,835 Climbing Houston Center
Wed 01:38:09 PM 29.7022 -98.3389 North 352 405 11,000  Level Houston Center
Wed 01:39:14 PM 29.8100 -98.3275 North 359 413 11,000  Level Houston Center
Wed 01:40:16 PM 29.9011 -98.2769 26° Northeast 369 425 11,000  Level Houston Center
Wed 01:41:18 PM 29.9897 -98.2131 32° Northeast 371 427 11,000  Level Houston Center
Wed 01:42:20 PM 30.0844 -98.1439 32° Northeast 374 430 11,000  Level Houston Center
Wed 01:43:22 PM 30.1722 -98.0769 33° Northeast 378 435 11,000 -435 Level Houston Center
Wed 01:44:24 PM 30.2511 -97.9989 41° Northeast 349 402 10,100 -1,161 Descending Houston Center
Wed 01:45:26 PM 30.2989 -97.9156 56° Northeast 319 367 8,600 -1,790 Descending Houston Center
Wed 01:46:28 PM 30.3528 -97.8567 43° Northeast 302 348 6,400 -2,565 Descending Houston Center
Wed 01:47:30 PM 30.3789 -97.7725 70° East 251 289 3,300 -1,645 Descending Houston Center
Wed 01:48:32 PM 30.3811 -97.7064 88° East 223 257 3,000 -145 Descending Houston Center
Wed 01:49:34 PM 30.3542 -97.6714 132° Southeast 182 209 3,000 -242 Level Houston Center
Wed 01:50:36 PM 30.3100 -97.6583 166° South 168 193 2,500 -629 Descending Houston Center
Wed 01:51:38 PM 30.2658 -97.6589 181° South 161 185 1,700 -677 Descending Houston Center
Wed 01:52:40 PM 30.2319 -97.6569 177° South 137 158 1,100 -581 Descending Houston Center
Wed 01:54:00 PM 30.1945 -97.6699 221° Southwest  Level Estimated
Wed 02:01:00 PM 30.1945 -97.6699 221° Southwest  Level Estimated

Login

Don't have an account? Register now (free) for customized features, flight alerts, and more!